• Join FlightAware (Why Join?)
  • Login
  • US Flag 
09:49PM EDT


 

Airport Tracker/Info


-or-


 

Live Flight TrackerFlight Track Log ✈ VNR160 ✈ 26-Apr-2013 ✈ KLFT - KDAL

Flight Track Log - Related Links

Times and Time Zones

All times are in EDT time to prevent confusion due to time zone crossing. See the VNR160 flight status page for this flight to view local times or setup timezone preferences in your user account.

Time Position Orientation Groundspeed Altitude Reporting Facility
EDT Latitude Longitude Course Direction KTS MPH feet Rate Location/Type
10:07PM 30.1589 -92.0428 226° Southwest 189 217 20,000  Level Houston Center
10:08PM 30.1236 -92.0872 227° Southwest 207 238 3,900 -6,960 Descending Houston Center
10:09PM 30.0875 -92.1344 229° Southwest 195 224 5,900 2,280 Climbing Houston Center
10:10PM 30.0439 -92.1928 229° Southwest 199 229 8,600 2,400 Climbing Houston Center
10:11PM 30.0056 -92.2417 228° Southwest 202 232 10,800 2,040 Climbing Houston Center
10:12PM 29.8933 -92.4081 226° Southwest  Level FlightAware Approximate
10:12PM 29.9661 -92.2939 229° Southwest 213 245 12,800  Level Houston Center
10:13PM 29.9267 -92.3497 231° Southwest 223 257 14,800 1,800 Climbing Houston Center
10:14PM 29.8822 -92.4072 228° Southwest 233 268 16,600 1,800 Climbing Houston Center
10:15PM 29.8367 -92.4681 229° Southwest 243 280 18,500 1,620 Climbing Houston Center
10:16PM 29.8158 -92.5469 253° West 259 298 19,900 720 Climbing Houston Center
10:17PM 29.7914 -92.6350 252° West 272 313 20,000  Climbing Houston Center
10:18PM 29.7636 -92.7369 253° West 319 367 20,000  Level Houston Center
10:19PM 29.7361 -92.8381 253° West 329 379 20,000  Level Houston Center
10:20PM 29.7069 -92.9372 251° West 327 376 20,000  Level Houston Center
10:21PM 29.6808 -93.0367 253° West 325 374 20,000  Level Houston Center
10:22PM 29.6522 -93.1344 251° West 323 372 20,000  Level Houston Center
10:23PM 29.6197 -93.2522 252° West 323 372 20,000 -240 Level Houston Center
10:24PM 29.5922 -93.3517 252° West 324 373 19,600 -600 Descending Houston Center
10:25PM 29.5622 -93.4544 251° West 334 384 18,800 -780 Descending Houston Center
10:26PM 29.5342 -93.5550 252° West 332 382 18,100 -780 Descending Houston Center
10:27PM 29.5081 -93.6475 252° West 309 356 17,300 -720 Descending Houston Center
10:28PM 29.4839 -93.7344 252° West 290 334 16,700 -600 Descending Houston Center
10:29PM 29.4581 -93.8239 252° West 294 338 16,200  Descending Houston Center
10:30PM 29.4656 -93.9086 276° West 294 338 16,700 780 Climbing Houston Center
10:31PM 29.5308 -93.9611 325° Northwest 287 330 17,900 1,440 Climbing Houston Center
10:31PM 29.5564 -93.9817 325° Northwest 288 331 18,500 1,620 Climbing Houston Center
10:32PM 29.5839 -94.0044 324° Northwest 289 333 19,000 1,020 Climbing Houston Center
10:32PM 29.5978 -94.0142 329° Northwest 290 334 19,300 960 Climbing Houston Center
10:33PM 29.6478 -94.0536 326° Northwest 291 335 20,000 660 Climbing Houston Center
10:33PM 29.6658 -94.0658 330° Northwest 293 337 20,000  Level Houston Center
10:34PM 29.7256 -94.1131 326° Northwest 322 371 20,000  Level Houston Center
10:34PM 29.7403 -94.1253 324° Northwest 314 361 20,000  Level Houston Center
10:35PM 29.8011 -94.1753 325° Northwest 340 391 20,000 60 Level Houston Center
10:35PM 29.8244 -94.1925 327° Northwest 335 386 20,100 1,440 Climbing Houston Center
10:36PM 29.8983 -94.2533 324° Northwest 333 383 22,000 1,920 Climbing Houston Center
10:37PM 29.9650 -94.3108 323° Northwest 281 323 24,100 1,860 Climbing Houston Center
10:38PM 30.0242 -94.3608 324° Northwest 266 306 25,800 1,440 Climbing Houston Center
10:39PM 30.0872 -94.4128 325° Northwest 273 314 27,100 1,320 Climbing Houston Center
10:40PM 30.1514 -94.4667 324° Northwest 283 326 28,600 1,320 Climbing Houston Center
10:41PM 30.2186 -94.5214 325° Northwest 284 327 29,900 660 Climbing Houston Center
10:42PM 30.2853 -94.5775 324° Northwest 297 342 30,000  Climbing Houston Center
10:43PM 30.3583 -94.6394 324° Northwest 325 374 30,000  Level Houston Center
10:44PM 30.4356 -94.7028 325° Northwest 340 391 30,000  Level Houston Center
10:45PM 30.5147 -94.7722 323° Northwest 345 397 30,000  Level Houston Center
10:46PM 30.5931 -94.8386 324° Northwest 347 399 30,000  Level Houston Center
10:47PM 30.6731 -94.9061 324° Northwest 352 405 30,000  Level Houston Center
10:48PM 30.7525 -94.9733 324° Northwest 352 405 30,000  Level Houston Center
10:49PM 30.8306 -95.0417 323° Northwest 350 403 30,000  Level Houston Center
10:50PM 30.9094 -95.1094 324° Northwest 350 403 30,000  Level Houston Center
10:51PM 30.9897 -95.1772 324° Northwest 352 405 30,000  Level Houston Center
10:52PM 31.0692 -95.2450 324° Northwest 351 404 30,000  Level Houston Center
10:53PM 31.1500 -95.3161 323° Northwest 347 399 30,000  Level Fort Worth Center
10:54PM 31.2408 -95.3894 325° Northwest 342 394 30,000  Level Fort Worth Center
10:55PM 31.3150 -95.4536 324° Northwest 342 394 30,000  Level Fort Worth Center
10:56PM 31.3953 -95.5225 324° Northwest 349 402 30,000  Level Fort Worth Center
10:57PM 31.4694 -95.5867 324° Northwest 349 402 30,000  Level Fort Worth Center
10:58PM 31.5478 -95.6583 322° Northwest 349 402 30,000 -600 Level Fort Worth Center
10:59PM 31.6300 -95.7275 324° Northwest 349 402 28,900 -1,560 Descending Fort Worth Center
11:00PM 31.6997 -95.7919 322° Northwest 354 407 26,900 -2,100 Descending Fort Worth Center
11:01PM 31.7800 -95.8614 324° Northwest 354 407 24,700 -2,160 Descending Fort Worth Center
11:02PM 31.8561 -95.9286 323° Northwest 348 400 22,600 -2,100 Descending Fort Worth Center
11:03PM 31.9319 -95.9936 324° Northwest 348 400 20,500 -2,100 Descending Fort Worth Center
11:04PM 32.0036 -96.0586 322° Northwest 309 356 18,400 -1,980 Descending Fort Worth Center
11:05PM 32.0753 -96.1164 326° Northwest 304 350 16,600 -1,860 Descending Fort Worth Center
11:06PM 32.1425 -96.1792 322° Northwest 304 350 14,700 -2,040 Descending Fort Worth Center
11:07PM 32.2142 -96.2347 327° Northwest 304 350 12,600 -1,980 Descending Fort Worth Center
11:08PM 32.2875 -96.2806 332° Northwest 304 350 10,800 -1,800 Descending Fort Worth Center
11:09PM 32.3589 -96.3264 332° Northwest 299 344 9,100 -1,800 Descending Fort Worth Center
11:10PM 32.4303 -96.3672 334° Northwest 287 330 7,200 -1,500 Descending Fort Worth Center
11:11PM 32.4994 -96.4058 335° Northwest 287 330 6,100 -1,080 Descending Fort Worth Center
11:12PM 32.5689 -96.4494 332° Northwest 280 322 5,100 -1,020 Descending Fort Worth Center
11:13PM 32.6400 -96.4933 333° Northwest 286 329 4,100 -600 Descending Fort Worth Center
11:14PM 32.7050 -96.5444 327° Northwest 291 335 4,000 -60 Descending Fort Worth Center
11:15PM 32.7661 -96.6031 321° Northwest 285 328 4,000  Level Fort Worth Center
11:16PM 32.8250 -96.6619 320° Northwest 279 321 4,000  Level Fort Worth Center
11:17PM 32.8817 -96.7158 321° Northwest 273 314 4,000 -300 Level Fort Worth Center
11:18PM 32.9153 -96.7725 305° West 243 280 3,400 -720 Descending Fort Worth Center
11:19PM 32.9333 -96.8333 289° West 190 219 2,600 -900 Descending Dallas / Fort Worth TRACON
11:20PM 32.9167 -96.8833 248° West 148 170 1,600 -780 Descending Dallas / Fort Worth TRACON
11:21PM 32.8833 -96.8833 180° South 117 135 1,200 -480 Descending Dallas / Fort Worth TRACON
11:23PM 32.8471 -96.8518 220° Southwest  Level Estimated
11:30PM 32.8471 -96.8518 220° Southwest  Level Estimated
11:31PM 32.8471 -96.8518 220° Southwest  Level Estimated